createdAt,value
2022-08-25T00:02:13.632Z,4.43
2022-08-25T00:04:40.449Z,4.18
2022-08-25T00:07:09.128Z,3.40
2022-08-25T00:09:35.974Z,3.30
2022-08-25T00:12:03.653Z,7.13
2022-08-25T00:14:34.327Z,3.63
2022-08-25T00:17:02.134Z,3.33
2022-08-25T00:19:33.035Z,3.95
2022-08-25T00:22:00.882Z,4.03
2022-08-25T00:24:27.780Z,4.53
2022-08-25T00:26:56.669Z,3.22
2022-08-25T00:29:26.063Z,4.85
2022-08-25T00:31:53.441Z,5.45
2022-08-25T00:34:24.458Z,3.47
2022-08-25T00:36:51.878Z,4.35
2022-08-25T00:39:20.983Z,3.33
2022-08-25T00:41:48.607Z,4.70
2022-08-25T00:44:18.730Z,4.07
2022-08-25T00:46:51.301Z,5.30
2022-08-25T00:49:28.591Z,4.18
2022-08-25T00:52:13.542Z,5.28
2022-08-25T00:54:54.121Z,3.63
2022-08-25T00:57:34.193Z,4.55
2022-08-25T01:00:07.110Z,4.53
2022-08-25T01:02:34.118Z,9.63
2022-08-25T01:05:00.889Z,5.70
2022-08-25T01:07:27.940Z,5.97
2022-08-25T01:09:55.619Z,4.05
2022-08-25T01:12:22.532Z,8.32
2022-08-25T01:14:50.882Z,3.70
2022-08-25T01:17:17.962Z,5.47
2022-08-25T01:19:45.085Z,5.07
2022-08-25T01:22:12.550Z,4.78
2022-08-25T01:24:46.904Z,5.28
2022-08-25T01:27:13.685Z,4.20
2022-08-25T01:29:40.344Z,4.40
2022-08-25T01:32:11.290Z,4.82
2022-08-25T01:34:41.345Z,6.20
2022-08-25T01:37:13.468Z,5.82
2022-08-25T01:39:41.744Z,4.68
2022-08-25T01:42:11.561Z,6.93
2022-08-25T01:44:42.736Z,4.13
2022-08-25T01:47:10.168Z,5.15
2022-08-25T01:49:37.199Z,4.68
2022-08-25T01:52:15.484Z,6.63
2022-08-25T01:54:43.032Z,4.55
2022-08-25T01:57:09.814Z,4.65
2022-08-25T01:59:36.674Z,5.07
2022-08-25T02:02:04.896Z,4.60
2022-08-25T02:04:32.700Z,6.22
2022-08-25T02:07:07.328Z,4.97
2022-08-25T02:09:34.716Z,5.55
2022-08-25T02:12:01.364Z,5.75
2022-08-25T02:14:28.540Z,5.00
2022-08-25T02:16:55.955Z,4.88
2022-08-25T02:19:24.388Z,5.85
2022-08-25T02:21:51.295Z,4.93
2022-08-25T02:24:18.685Z,5.47
2022-08-25T02:26:45.654Z,8.48
2022-08-25T02:29:12.347Z,6.00
2022-08-25T02:31:39.738Z,5.43
2022-08-25T02:34:07.615Z,5.38
2022-08-25T02:36:34.964Z,4.90
2022-08-25T02:39:02.201Z,5.75
2022-08-25T02:41:31.782Z,5.57
2022-08-25T02:43:58.916Z,5.70
2022-08-25T02:46:25.802Z,8.82
2022-08-25T02:48:53.272Z,7.75
2022-08-25T02:51:22.012Z,6.53
2022-08-25T02:53:48.964Z,6.85
2022-08-25T02:56:16.476Z,7.18
2022-08-25T02:58:43.241Z,6.72
2022-08-25T03:01:11.924Z,6.53
2022-08-25T03:03:44.340Z,6.35
2022-08-25T03:06:13.090Z,6.88
2022-08-25T03:08:41.810Z,6.28
2022-08-25T03:11:09.120Z,6.93
2022-08-25T03:13:36.362Z,7.18
2022-08-25T03:16:05.980Z,7.90
2022-08-25T03:18:39.329Z,7.38
2022-08-25T03:21:07.378Z,8.00
2022-08-25T03:23:34.207Z,8.00
2022-08-25T03:26:19.409Z,7.95
2022-08-25T03:28:46.230Z,7.53
2022-08-25T03:31:13.279Z,8.32
2022-08-25T03:33:40.149Z,7.63
2022-08-25T03:36:08.485Z,9.13
2022-08-25T03:38:38.131Z,8.43
2022-08-25T03:41:16.585Z,10.13
2022-08-25T03:43:43.844Z,8.90
2022-08-25T03:46:17.481Z,10.07
2022-08-25T03:48:44.063Z,9.10
2022-08-25T03:51:10.942Z,9.13
2022-08-25T03:53:37.632Z,8.95
2022-08-25T03:56:04.645Z,8.65
2022-08-25T03:58:31.457Z,10.63
2022-08-25T04:01:00.574Z,10.13
2022-08-25T04:03:27.437Z,9.38
2022-08-25T04:05:54.025Z,9.95
2022-08-25T04:08:23.234Z,13.15
2022-08-25T04:10:49.843Z,11.25
2022-08-25T04:13:17.050Z,9.88
2022-08-25T04:15:44.150Z,9.75
2022-08-25T04:18:13.755Z,11.25
2022-08-25T04:20:46.382Z,11.88
2022-08-25T04:23:13.811Z,10.00
2022-08-25T04:25:46.197Z,16.65
2022-08-25T04:28:13.097Z,17.88
2022-08-25T04:30:43.586Z,14.68
2022-08-25T04:33:10.169Z,12.40
2022-08-25T04:35:36.785Z,13.23
2022-08-25T04:38:05.418Z,14.52
2022-08-25T04:40:32.566Z,15.18
2022-08-25T04:42:59.732Z,13.63
2022-08-25T04:45:26.684Z,13.82
2022-08-25T04:47:55.057Z,13.05
2022-08-25T04:50:21.901Z,17.40
2022-08-25T04:52:49.317Z,14.50
2022-08-25T04:55:19.202Z,14.55
2022-08-25T04:57:45.912Z,16.58
2022-08-25T05:00:13.220Z,16.90
2022-08-25T05:02:40.324Z,15.52
2022-08-25T05:05:07.632Z,15.13
2022-08-25T05:07:35.024Z,15.23
2022-08-25T05:10:02.299Z,15.55
2022-08-25T05:12:29.270Z,16.70
2022-08-25T05:15:19.206Z,16.55
2022-08-25T05:17:46.352Z,15.82
2022-08-25T05:20:13.027Z,15.60
2022-08-25T05:22:39.683Z,15.05
2022-08-25T05:25:07.308Z,17.45
2022-08-25T05:27:35.250Z,17.80
2022-08-25T05:30:02.123Z,17.15
2022-08-25T05:32:28.961Z,19.27
2022-08-25T05:34:55.924Z,15.00
2022-08-25T05:37:22.788Z,15.68
2022-08-25T05:39:50.154Z,17.92
2022-08-25T05:42:17.210Z,17.90
2022-08-25T05:44:44.036Z,15.35
2022-08-25T05:47:10.585Z,14.93
2022-08-25T05:49:37.156Z,13.93
2022-08-25T05:52:04.185Z,14.27
2022-08-25T05:54:32.830Z,14.65
2022-08-25T05:57:01.309Z,13.98
2022-08-25T05:59:30.106Z,13.02
2022-08-25T06:02:15.110Z,14.35
2022-08-25T06:04:41.723Z,12.98
2022-08-25T06:07:10.248Z,12.98
2022-08-25T06:09:41.253Z,13.68
2022-08-25T06:12:09.012Z,12.35
2022-08-25T06:14:36.872Z,13.48
2022-08-25T06:17:04.715Z,11.95
2022-08-25T06:19:31.830Z,13.38
2022-08-25T06:22:00.120Z,13.98
2022-08-25T06:24:28.135Z,13.65
2022-08-25T06:26:55.270Z,13.82
2022-08-25T06:29:22.292Z,11.98
2022-08-25T06:31:49.965Z,11.77
2022-08-25T06:34:18.449Z,12.10
2022-08-25T06:36:48.929Z,14.15
2022-08-25T06:39:16.955Z,11.85
2022-08-25T06:41:44.774Z,13.77
2022-08-25T06:44:12.104Z,12.65
2022-08-25T06:46:38.927Z,12.23
2022-08-25T06:49:07.480Z,14.25
2022-08-25T06:51:37.408Z,11.38
2022-08-25T06:54:06.579Z,11.32
2022-08-25T06:56:34.234Z,11.15
2022-08-25T06:59:05.209Z,10.52
2022-08-25T07:01:33.416Z,11.10
2022-08-25T07:04:01.881Z,11.88
2022-08-25T07:06:32.220Z,11.60
2022-08-25T07:08:59.459Z,11.80
2022-08-25T07:11:26.943Z,14.85
2022-08-25T07:13:53.991Z,13.15
2022-08-25T07:16:21.637Z,11.45
2022-08-25T07:18:48.923Z,10.98
2022-08-25T07:21:16.021Z,23.42
2022-08-25T07:23:43.236Z,15.52
2022-08-25T07:26:36.404Z,18.92
2022-08-25T07:29:07.044Z,23.17
2022-08-25T07:31:34.231Z,11.65
2022-08-25T07:34:19.496Z,17.20
2022-08-25T07:36:47.093Z,12.90
2022-08-25T07:39:13.827Z,10.38
2022-08-25T07:41:42.192Z,9.52
2022-08-25T07:44:11.904Z,9.52
2022-08-25T07:46:39.161Z,9.40
2022-08-25T07:49:16.334Z,11.30
2022-08-25T07:52:04.145Z,11.07
2022-08-25T07:54:34.605Z,13.07
2022-08-25T07:57:03.615Z,8.40
2022-08-25T07:59:31.048Z,9.52
2022-08-25T08:02:18.117Z,9.73
2022-08-25T08:04:50.170Z,10.38
2022-08-25T08:07:22.933Z,8.30
2022-08-25T08:09:56.158Z,9.85
2022-08-25T08:12:34.104Z,8.40
2022-08-25T08:15:01.281Z,8.13
2022-08-25T08:17:28.001Z,9.88
2022-08-25T08:19:54.909Z,9.63
2022-08-25T08:22:21.868Z,10.52
2022-08-25T08:24:56.125Z,8.45
2022-08-25T08:27:23.736Z,10.88
2022-08-25T08:29:50.482Z,7.75
2022-08-25T08:32:18.621Z,9.73
2022-08-25T08:34:46.976Z,7.47
2022-08-25T08:37:18.638Z,6.40
2022-08-25T08:39:48.850Z,6.55
2022-08-25T08:42:37.011Z,6.50
2022-08-25T08:45:24.348Z,6.43
2022-08-25T08:48:09.994Z,5.80
2022-08-25T08:50:46.611Z,5.72
2022-08-25T08:53:24.959Z,7.47
2022-08-25T08:56:01.006Z,5.97
2022-08-25T08:58:51.010Z,7.80
2022-08-25T09:01:36.084Z,6.50
2022-08-25T09:04:15.921Z,7.60
2022-08-25T09:06:46.102Z,5.82
2022-08-25T09:09:16.913Z,5.82
2022-08-25T09:11:53.111Z,6.35
2022-08-25T09:14:55.829Z,6.93
2022-08-25T09:17:41.223Z,6.55
2022-08-25T09:20:29.374Z,6.35
2022-08-25T09:23:14.561Z,5.90
2022-08-25T09:26:17.072Z,5.57
2022-08-25T09:28:51.352Z,6.40
2022-08-25T09:31:35.612Z,5.78
2022-08-25T09:34:07.226Z,6.40
2022-08-25T09:36:37.661Z,7.70
2022-08-25T09:39:06.663Z,8.48
2022-08-25T09:41:45.395Z,7.05
2022-08-25T09:44:34.322Z,8.35
2022-08-25T09:47:13.711Z,6.32
2022-08-25T09:49:49.217Z,6.28
2022-08-25T09:52:41.263Z,5.80
2022-08-25T09:55:08.229Z,6.38
2022-08-25T09:57:52.973Z,5.50
2022-08-25T10:00:22.076Z,10.07
2022-08-25T10:03:10.596Z,8.70
2022-08-25T10:05:56.256Z,8.15
2022-08-25T10:08:34.373Z,9.65
2022-08-25T10:11:05.015Z,9.05
2022-08-25T10:13:45.302Z,7.25
2022-08-25T10:16:29.761Z,6.03
2022-08-25T10:19:10.109Z,4.82
2022-08-25T10:21:40.010Z,8.55
2022-08-25T10:24:08.884Z,6.13
2022-08-25T10:26:48.661Z,8.45
2022-08-25T10:29:54.372Z,4.82
2022-08-25T10:32:58.647Z,5.50
2022-08-25T10:35:44.399Z,7.05
2022-08-25T10:38:36.365Z,4.88
2022-08-25T10:41:23.038Z,5.03
2022-08-25T10:47:35.793Z,6.47
2022-08-25T10:50:13.392Z,11.77
2022-08-25T10:53:09.215Z,5.20
2022-08-25T10:56:07.162Z,6.00
2022-08-25T10:58:56.468Z,5.40
2022-08-25T11:02:01.431Z,6.05
2022-08-25T11:04:48.883Z,7.35
2022-08-25T11:07:35.497Z,5.45
2022-08-25T11:10:27.047Z,7.38
2022-08-25T11:12:59.661Z,7.32
2022-08-25T11:15:50.305Z,6.25
2022-08-25T11:18:32.011Z,7.22
2022-08-25T11:21:09.485Z,6.68
2022-08-25T11:23:50.076Z,5.45
2022-08-25T11:26:30.975Z,6.57
2022-08-25T11:29:11.391Z,6.13
2022-08-25T11:31:44.292Z,7.82
2022-08-25T11:34:15.234Z,5.38
2022-08-25T11:37:07.580Z,7.10
2022-08-25T11:39:55.931Z,5.97
2022-08-25T11:42:52.176Z,6.82
2022-08-25T11:45:22.195Z,5.22
2022-08-25T11:48:20.497Z,5.00
2022-08-25T11:51:21.447Z,4.72
2022-08-25T11:53:49.143Z,5.40
2022-08-25T11:56:36.223Z,6.50
2022-08-25T11:59:06.786Z,5.00
2022-08-25T12:01:40.120Z,6.05
2022-08-25T12:04:13.243Z,7.25
2022-08-25T12:07:19.237Z,4.90
2022-08-25T12:09:55.217Z,5.18
2022-08-25T12:12:55.227Z,5.63
2022-08-25T12:15:32.704Z,8.25
2022-08-25T12:18:14.445Z,5.30
2022-08-25T12:20:54.169Z,5.20
2022-08-25T12:26:12.153Z,5.85
2022-08-25T12:29:01.049Z,5.25
2022-08-25T12:32:04.904Z,5.75
2022-08-25T12:34:51.929Z,5.57
2022-08-25T12:37:24.251Z,6.25
2022-08-25T12:39:50.932Z,5.50
2022-08-25T12:42:35.866Z,6.95
2022-08-25T12:45:14.967Z,5.07
2022-08-25T12:47:47.288Z,6.32
2022-08-25T12:50:47.709Z,4.78
2022-08-25T12:53:21.300Z,5.63
2022-08-25T12:55:52.125Z,5.50
2022-08-25T12:58:19.077Z,6.00
2022-08-25T13:01:17.551Z,7.40
2022-08-25T13:04:41.661Z,7.45
2022-08-25T13:07:15.429Z,6.35
2022-08-25T13:10:03.869Z,8.32
2022-08-25T13:12:51.220Z,5.10
2022-08-25T13:15:45.071Z,5.32
2022-08-25T13:18:27.112Z,4.75
2022-08-25T13:21:20.595Z,6.18
2022-08-25T13:23:50.081Z,7.38
2022-08-25T13:26:32.979Z,5.40
2022-08-25T13:29:14.339Z,5.65
2022-08-25T13:32:14.215Z,5.30
2022-08-25T13:34:43.135Z,7.10
2022-08-25T13:37:30.184Z,7.88
2022-08-25T13:40:24.739Z,5.30
2022-08-25T13:42:59.773Z,6.32
2022-08-25T13:45:32.187Z,5.13
2022-08-25T13:47:59.182Z,5.60
2022-08-25T13:50:26.342Z,5.30
2022-08-25T13:53:25.071Z,8.35
2022-08-25T13:55:58.666Z,7.00
2022-08-25T13:58:39.181Z,5.03
2022-08-25T14:01:48.499Z,6.40
2022-08-25T14:04:51.224Z,6.82
2022-08-25T14:07:21.661Z,6.30
2022-08-25T14:09:55.405Z,5.10
2022-08-25T14:12:33.106Z,7.63
2022-08-25T14:15:10.572Z,6.10
2022-08-25T14:17:40.769Z,6.18
2022-08-25T14:20:18.687Z,4.88
2022-08-25T14:22:45.512Z,5.03
2022-08-25T14:25:12.395Z,5.53
2022-08-25T14:28:03.632Z,6.80
2022-08-25T14:30:31.191Z,9.35
2022-08-25T14:32:58.554Z,5.63
2022-08-25T14:35:25.356Z,5.63
2022-08-25T14:37:52.210Z,6.90
2022-08-25T14:40:19.914Z,9.57
2022-08-25T14:42:47.536Z,5.40
2022-08-25T14:45:15.797Z,4.88
2022-08-25T14:47:44.202Z,5.35
2022-08-25T14:50:16.971Z,5.22
2022-08-25T14:52:46.808Z,5.55
2022-08-25T14:55:13.415Z,6.30
2022-08-25T14:57:58.563Z,5.55
2022-08-25T15:00:25.972Z,5.95
2022-08-25T15:02:53.307Z,5.65
2022-08-25T15:05:26.965Z,8.07
2022-08-25T15:08:33.195Z,5.13
2022-08-25T15:11:00.430Z,5.78
2022-08-25T15:13:27.473Z,7.18
2022-08-25T15:15:55.152Z,4.55
2022-08-25T15:18:25.860Z,4.80
2022-08-25T15:20:53.116Z,6.72
2022-08-25T15:23:19.930Z,5.47
2022-08-25T15:25:48.893Z,4.93
2022-08-25T15:28:21.946Z,8.48
2022-08-25T15:30:49.630Z,3.95
2022-08-25T15:33:17.306Z,5.43
2022-08-25T15:35:44.259Z,4.50
2022-08-25T15:38:12.561Z,7.53
2022-08-25T15:40:39.667Z,5.68
2022-08-25T15:43:07.027Z,4.95
2022-08-25T15:45:35.828Z,6.47
2022-08-25T15:48:03.005Z,4.75
2022-08-25T15:50:29.935Z,4.68
2022-08-25T15:52:56.752Z,8.20
2022-08-25T15:55:23.592Z,5.95
2022-08-25T15:57:50.338Z,7.00
2022-08-25T16:00:17.980Z,6.38
2022-08-25T16:02:45.475Z,7.40
2022-08-25T16:05:13.624Z,8.13
2022-08-25T16:07:41.853Z,4.82
2022-08-25T16:10:09.037Z,4.88
2022-08-25T16:12:39.894Z,6.15
2022-08-25T16:15:10.135Z,7.18
2022-08-25T16:17:40.749Z,4.50
2022-08-25T16:20:13.739Z,5.57
2022-08-25T16:22:40.808Z,6.00
2022-08-25T16:25:08.016Z,5.32
2022-08-25T16:27:37.800Z,5.25
2022-08-25T16:30:07.109Z,5.38
2022-08-25T16:32:33.704Z,6.72
2022-08-25T16:35:00.746Z,5.45
2022-08-25T16:37:27.720Z,6.15
2022-08-25T16:39:55.317Z,5.40
2022-08-25T16:42:22.321Z,5.60
2022-08-25T16:44:48.984Z,5.93
2022-08-25T16:47:20.855Z,6.70
2022-08-25T16:49:52.093Z,7.60
2022-08-25T16:52:38.493Z,6.75
2022-08-25T16:55:14.246Z,8.98
2022-08-25T16:57:45.277Z,6.30
2022-08-25T17:00:17.424Z,7.00
2022-08-25T17:02:44.047Z,9.23
2022-08-25T17:05:12.565Z,8.52
2022-08-25T17:07:39.681Z,6.15
2022-08-25T17:10:07.850Z,7.32
2022-08-25T17:12:39.628Z,9.60
2022-08-25T17:15:07.557Z,6.05
2022-08-25T17:17:36.261Z,5.53
2022-08-25T17:20:04.627Z,7.85
2022-08-25T17:22:42.350Z,5.50
2022-08-25T17:25:09.245Z,5.32
2022-08-25T17:27:35.866Z,7.95
2022-08-25T17:30:03.569Z,6.13
2022-08-25T17:32:30.810Z,5.57
2022-08-25T17:34:58.147Z,7.63
2022-08-25T17:37:25.643Z,7.43
2022-08-25T17:40:02.387Z,6.30
2022-08-25T17:42:31.716Z,6.13
2022-08-25T17:44:58.588Z,5.93
2022-08-25T17:47:26.960Z,7.75
2022-08-25T17:49:54.024Z,6.28
2022-08-25T17:52:25.477Z,5.75
2022-08-25T17:54:52.906Z,10.07
2022-08-25T17:57:21.253Z,6.85
2022-08-25T17:59:48.180Z,7.30
2022-08-25T18:02:14.933Z,6.43
2022-08-25T18:04:42.586Z,8.45
2022-08-25T18:07:09.914Z,6.00
2022-08-25T18:09:36.523Z,9.93
2022-08-25T18:12:03.408Z,6.13
2022-08-25T18:14:30.260Z,5.80
2022-08-25T18:16:57.351Z,8.82
2022-08-25T18:19:23.967Z,8.05
2022-08-25T18:21:50.966Z,5.95
2022-08-25T18:24:19.319Z,6.07
2022-08-25T18:26:48.992Z,6.97
2022-08-25T18:29:16.696Z,7.32
2022-08-25T18:31:45.838Z,6.60
2022-08-25T18:34:15.781Z,7.78
2022-08-25T18:36:42.552Z,8.27
2022-08-25T18:39:34.449Z,6.07
2022-08-25T18:42:02.950Z,5.13
2022-08-25T18:44:31.504Z,7.78
2022-08-25T18:46:58.639Z,8.48
2022-08-25T18:49:26.888Z,9.57
2022-08-25T18:51:55.632Z,6.68
2022-08-25T18:54:23.649Z,5.85
2022-08-25T18:56:54.071Z,5.53
2022-08-25T18:59:23.699Z,5.50
2022-08-25T19:01:52.495Z,7.50
2022-08-25T19:04:19.330Z,7.72
2022-08-25T19:06:45.975Z,6.72
2022-08-25T19:09:13.120Z,5.75
2022-08-25T19:11:39.714Z,7.75
2022-08-25T19:14:12.019Z,5.25
2022-08-25T19:16:42.321Z,6.78
2022-08-25T19:19:12.999Z,10.60
2022-08-25T19:21:41.417Z,5.90
2022-08-25T19:24:10.639Z,8.48
2022-08-25T19:26:38.585Z,7.63
2022-08-25T19:29:12.571Z,6.95
2022-08-25T19:31:41.446Z,6.78
2022-08-25T19:34:10.908Z,8.75
2022-08-25T19:36:38.299Z,12.43
2022-08-25T19:39:07.523Z,7.10
2022-08-25T19:41:35.333Z,6.88
2022-08-25T19:44:03.019Z,6.28
2022-08-25T19:46:35.733Z,6.18
2022-08-25T19:49:08.314Z,7.32
2022-08-25T19:51:40.865Z,7.63
2022-08-25T19:54:12.591Z,6.93
2022-08-25T19:56:43.887Z,5.65
2022-08-25T19:59:22.440Z,6.65
2022-08-25T20:01:50.049Z,6.63
2022-08-25T20:04:16.730Z,6.53
2022-08-25T20:06:43.583Z,7.15
2022-08-25T20:09:21.094Z,7.90
2022-08-25T20:12:02.338Z,8.20
2022-08-25T20:14:33.847Z,5.63
2022-08-25T20:17:01.789Z,7.72
2022-08-25T20:19:31.150Z,6.47
2022-08-25T20:21:58.877Z,7.25
2022-08-25T20:24:57.377Z,6.45
2022-08-25T20:27:28.044Z,9.20
2022-08-25T20:29:54.746Z,7.28
2022-08-25T20:32:22.946Z,7.57
2022-08-25T20:34:49.960Z,8.07
2022-08-25T20:37:20.256Z,7.88
2022-08-25T20:39:48.062Z,6.18
2022-08-25T20:42:15.439Z,8.38
2022-08-25T20:44:42.583Z,8.93
2022-08-25T20:47:10.983Z,6.70
2022-08-25T20:49:39.525Z,7.53
2022-08-25T20:52:07.643Z,7.85
2022-08-25T20:54:35.137Z,6.60
2022-08-25T20:57:02.707Z,6.70
2022-08-25T20:59:29.735Z,6.70
2022-08-25T21:01:56.575Z,7.10
2022-08-25T21:04:25.387Z,9.30
2022-08-25T21:06:52.843Z,6.60
2022-08-25T21:09:22.740Z,7.25
2022-08-25T21:11:53.093Z,7.18
2022-08-25T21:14:21.031Z,7.63
2022-08-25T21:16:49.202Z,9.40
2022-08-25T21:19:26.289Z,9.63
2022-08-25T21:21:54.452Z,8.77
2022-08-25T21:24:27.383Z,7.75
2022-08-25T21:26:56.507Z,8.57
2022-08-25T21:29:24.356Z,7.82
2022-08-25T21:31:51.049Z,7.05
2022-08-25T21:34:18.525Z,7.03
2022-08-25T21:36:46.070Z,7.30
2022-08-25T21:39:14.327Z,8.50
2022-08-25T21:41:44.186Z,7.05
2022-08-25T21:44:13.052Z,10.73
2022-08-25T21:46:41.289Z,8.60
2022-08-25T21:49:08.624Z,10.15
2022-08-25T21:51:41.046Z,8.98
2022-08-25T21:54:13.699Z,7.30
2022-08-25T21:56:55.412Z,10.23
2022-08-25T21:59:24.891Z,8.50
2022-08-25T22:01:59.242Z,8.45
2022-08-25T22:04:26.441Z,7.68
2022-08-25T22:06:53.574Z,7.68
2022-08-25T22:09:21.308Z,9.93
2022-08-25T22:11:48.163Z,9.50
2022-08-25T22:14:15.212Z,9.20
2022-08-25T22:16:42.593Z,7.20
2022-08-25T22:19:11.938Z,7.30
2022-08-25T22:21:40.806Z,6.90
2022-08-25T22:24:08.091Z,7.63
2022-08-25T22:26:37.036Z,8.82
2022-08-25T22:29:03.964Z,7.68
2022-08-25T22:31:31.861Z,7.88
2022-08-25T22:33:58.581Z,8.07
2022-08-25T22:36:36.238Z,7.68
2022-08-25T22:39:04.979Z,8.77
2022-08-25T22:41:32.123Z,8.35
2022-08-25T22:44:00.077Z,8.52
2022-08-25T22:46:32.460Z,8.50
2022-08-25T22:48:59.929Z,10.13
2022-08-25T22:51:31.381Z,8.75
2022-08-25T22:53:59.652Z,8.32
2022-08-25T22:56:32.173Z,8.57
2022-08-25T22:59:02.525Z,8.43
2022-08-25T23:01:30.067Z,8.25
2022-08-25T23:03:57.808Z,7.85
2022-08-25T23:06:25.237Z,9.60
2022-08-25T23:08:53.919Z,8.55
2022-08-25T23:11:21.891Z,9.02
2022-08-25T23:13:49.144Z,8.82
2022-08-25T23:16:16.725Z,8.80
2022-08-25T23:18:47.245Z,8.40
2022-08-25T23:21:37.844Z,7.88
2022-08-25T23:24:07.834Z,8.88
2022-08-25T23:26:35.019Z,8.48
2022-08-25T23:29:03.239Z,10.57
2022-08-25T23:31:44.048Z,8.77
2022-08-25T23:34:10.866Z,10.40
2022-08-25T23:36:38.042Z,9.60
2022-08-25T23:39:05.684Z,8.73
2022-08-25T23:41:36.863Z,11.07
2022-08-25T23:44:05.305Z,11.15
2022-08-25T23:46:34.858Z,9.38
2022-08-25T23:49:02.884Z,9.45
2022-08-25T23:51:33.898Z,9.20
2022-08-25T23:54:07.005Z,11.60
2022-08-25T23:56:37.020Z,10.00
2022-08-25T23:59:11.003Z,9.70
